sensor_id;sensor_type;location;lat;lon;timestamp;temperature;humidity
8910;DHT22;4490;49.072;8.804;2023-06-10T00:00:44;19.10;79.80
8910;DHT22;4490;49.072;8.804;2023-06-10T00:03:10;19.10;79.60
8910;DHT22;4490;49.072;8.804;2023-06-10T00:05:36;19.10;80.10
8910;DHT22;4490;49.072;8.804;2023-06-10T00:08:04;19.10;79.30
8910;DHT22;4490;49.072;8.804;2023-06-10T00:10:36;19.10;79.50
8910;DHT22;4490;49.072;8.804;2023-06-10T00:13:04;19.10;79.60
8910;DHT22;4490;49.072;8.804;2023-06-10T00:15:30;19.00;79.70
8910;DHT22;4490;49.072;8.804;2023-06-10T00:17:56;19.00;79.70
8910;DHT22;4490;49.072;8.804;2023-06-10T00:20:22;18.90;80.60
8910;DHT22;4490;49.072;8.804;2023-06-10T00:22:51;18.80;79.90
8910;DHT22;4490;49.072;8.804;2023-06-10T00:25:17;18.80;80.20
8910;DHT22;4490;49.072;8.804;2023-06-10T00:27:43;18.60;80.30
8910;DHT22;4490;49.072;8.804;2023-06-10T00:30:09;18.50;80.40
8910;DHT22;4490;49.072;8.804;2023-06-10T00:32:35;18.30;80.70
8910;DHT22;4490;49.072;8.804;2023-06-10T00:35:02;18.20;81.40
8910;DHT22;4490;49.072;8.804;2023-06-10T00:37:28;18.10;82.00
8910;DHT22;4490;49.072;8.804;2023-06-10T00:39:55;18.10;82.40
8910;DHT22;4490;49.072;8.804;2023-06-10T00:42:20;18.10;82.50
8910;DHT22;4490;49.072;8.804;2023-06-10T00:44:47;18.10;82.60
8910;DHT22;4490;49.072;8.804;2023-06-10T00:47:13;18.10;82.90
8910;DHT22;4490;49.072;8.804;2023-06-10T00:49:39;18.00;83.90
8910;DHT22;4490;49.072;8.804;2023-06-10T00:52:06;18.00;83.40
8910;DHT22;4490;49.072;8.804;2023-06-10T00:54:32;17.90;83.80
8910;DHT22;4490;49.072;8.804;2023-06-10T00:57:01;17.80;84.00
8910;DHT22;4490;49.072;8.804;2023-06-10T00:59:28;17.70;84.30
8910;DHT22;4490;49.072;8.804;2023-06-10T01:01:56;17.60;84.90
8910;DHT22;4490;49.072;8.804;2023-06-10T01:04:21;17.60;85.50
8910;DHT22;4490;49.072;8.804;2023-06-10T01:09:46;17.60;86.20
8910;DHT22;4490;49.072;8.804;2023-06-10T01:12:33;17.60;86.50
8910;DHT22;4490;49.072;8.804;2023-06-10T01:15:00;17.60;86.50
8910;DHT22;4490;49.072;8.804;2023-06-10T01:17:27;17.60;87.30
8910;DHT22;4490;49.072;8.804;2023-06-10T01:19:54;17.50;86.90
8910;DHT22;4490;49.072;8.804;2023-06-10T01:22:22;17.40;87.30
8910;DHT22;4490;49.072;8.804;2023-06-10T01:24:48;17.30;87.40
8910;DHT22;4490;49.072;8.804;2023-06-10T01:27:16;17.20;87.60
8910;DHT22;4490;49.072;8.804;2023-06-10T01:29:54;17.10;88.40
8910;DHT22;4490;49.072;8.804;2023-06-10T01:32:27;16.90;89.70
8910;DHT22;4490;49.072;8.804;2023-06-10T01:34:56;16.80;90.40
8910;DHT22;4490;49.072;8.804;2023-06-10T01:37:24;16.70;91.20
8910;DHT22;4490;49.072;8.804;2023-06-10T01:39:51;16.70;92.00
8910;DHT22;4490;49.072;8.804;2023-06-10T01:42:17;16.70;92.30
8910;DHT22;4490;49.072;8.804;2023-06-10T01:44:43;16.60;92.50
8910;DHT22;4490;49.072;8.804;2023-06-10T01:47:08;16.60;92.90
8910;DHT22;4490;49.072;8.804;2023-06-10T01:49:34;16.60;93.10
8910;DHT22;4490;49.072;8.804;2023-06-10T01:52:00;16.60;93.70
8910;DHT22;4490;49.072;8.804;2023-06-10T01:54:26;16.50;94.10
8910;DHT22;4490;49.072;8.804;2023-06-10T01:56:52;16.50;94.60
8910;DHT22;4490;49.072;8.804;2023-06-10T01:59:17;16.40;95.20
8910;DHT22;4490;49.072;8.804;2023-06-10T02:01:43;16.40;95.60
8910;DHT22;4490;49.072;8.804;2023-06-10T02:04:08;16.40;96.10
8910;DHT22;4490;49.072;8.804;2023-06-10T02:06:34;16.30;96.60
8910;DHT22;4490;49.072;8.804;2023-06-10T02:09:01;16.30;97.30
8910;DHT22;4490;49.072;8.804;2023-06-10T02:11:26;16.30;97.80
8910;DHT22;4490;49.072;8.804;2023-06-10T02:13:52;16.30;98.10
8910;DHT22;4490;49.072;8.804;2023-06-10T02:16:17;16.30;98.10
8910;DHT22;4490;49.072;8.804;2023-06-10T02:18:44;16.30;98.30
8910;DHT22;4490;49.072;8.804;2023-06-10T02:21:09;16.30;98.70
8910;DHT22;4490;49.072;8.804;2023-06-10T02:23:35;16.30;99.00
8910;DHT22;4490;49.072;8.804;2023-06-10T02:26:01;16.30;99.70
8910;DHT22;4490;49.072;8.804;2023-06-10T02:28:27;16.30;99.90
8910;DHT22;4490;49.072;8.804;2023-06-10T02:30:53;16.40;99.80
8910;DHT22;4490;49.072;8.804;2023-06-10T02:33:19;16.40;99.80
8910;DHT22;4490;49.072;8.804;2023-06-10T02:35:45;16.40;99.90
8910;DHT22;4490;49.072;8.804;2023-06-10T02:38:11;16.50;99.40
8910;DHT22;4490;49.072;8.804;2023-06-10T02:40:36;16.50;98.30
8910;DHT22;4490;49.072;8.804;2023-06-10T02:43:02;16.50;97.70
8910;DHT22;4490;49.072;8.804;2023-06-10T02:45:27;16.50;97.60
8910;DHT22;4490;49.072;8.804;2023-06-10T02:47:53;16.50;97.70
8910;DHT22;4490;49.072;8.804;2023-06-10T02:50:19;16.50;97.80
8910;DHT22;4490;49.072;8.804;2023-06-10T02:52:45;16.40;98.00
8910;DHT22;4490;49.072;8.804;2023-06-10T02:55:10;16.30;98.30
8910;DHT22;4490;49.072;8.804;2023-06-10T02:57:36;16.20;98.80
8910;DHT22;4490;49.072;8.804;2023-06-10T03:00:02;16.20;99.80
8910;DHT22;4490;49.072;8.804;2023-06-10T03:02:30;16.10;99.90
8910;DHT22;4490;49.072;8.804;2023-06-10T03:04:57;16.20;99.90
8910;DHT22;4490;49.072;8.804;2023-06-10T03:07:23;16.20;99.90
8910;DHT22;4490;49.072;8.804;2023-06-10T03:09:49;16.20;99.90
8910;DHT22;4490;49.072;8.804;2023-06-10T03:12:15;16.30;99.90
8910;DHT22;4490;49.072;8.804;2023-06-10T03:14:41;16.40;99.90
8910;DHT22;4490;49.072;8.804;2023-06-10T03:17:07;16.40;99.90
8910;DHT22;4490;49.072;8.804;2023-06-10T03:19:34;16.40;99.90
8910;DHT22;4490;49.072;8.804;2023-06-10T03:22:20;16.40;99.90
8910;DHT22;4490;49.072;8.804;2023-06-10T03:24:45;16.50;99.90
8910;DHT22;4490;49.072;8.804;2023-06-10T03:27:12;16.50;99.90
8910;DHT22;4490;49.072;8.804;2023-06-10T03:29:39;16.50;99.30
8910;DHT22;4490;49.072;8.804;2023-06-10T03:32:05;16.50;98.60
8910;DHT22;4490;49.072;8.804;2023-06-10T03:34:30;16.50;98.20
8910;DHT22;4490;49.072;8.804;2023-06-10T03:36:57;16.50;98.20
8910;DHT22;4490;49.072;8.804;2023-06-10T03:39:22;16.40;98.10
8910;DHT22;4490;49.072;8.804;2023-06-10T03:41:52;16.30;98.00
8910;DHT22;4490;49.072;8.804;2023-06-10T03:44:17;16.30;98.50
8910;DHT22;4490;49.072;8.804;2023-06-10T03:46:43;16.30;98.90
8910;DHT22;4490;49.072;8.804;2023-06-10T03:49:09;16.20;99.10
8910;DHT22;4490;49.072;8.804;2023-06-10T03:51:35;16.20;99.90
8910;DHT22;4490;49.072;8.804;2023-06-10T03:54:01;16.10;99.90
8910;DHT22;4490;49.072;8.804;2023-06-10T03:56:26;16.00;99.90
8910;DHT22;4490;49.072;8.804;2023-06-10T03:58:52;16.00;99.90
8910;DHT22;4490;49.072;8.804;2023-06-10T04:01:17;16.00;99.90
8910;DHT22;4490;49.072;8.804;2023-06-10T04:03:46;16.00;99.90
8910;DHT22;4490;49.072;8.804;2023-06-10T04:06:14;16.00;99.90
8910;DHT22;4490;49.072;8.804;2023-06-10T04:08:41;16.10;99.90
8910;DHT22;4490;49.072;8.804;2023-06-10T04:11:06;16.10;99.90
8910;DHT22;4490;49.072;8.804;2023-06-10T04:13:32;16.20;99.90
8910;DHT22;4490;49.072;8.804;2023-06-10T04:15:57;16.30;99.90
8910;DHT22;4490;49.072;8.804;2023-06-10T04:18:23;16.30;99.90
8910;DHT22;4490;49.072;8.804;2023-06-10T04:20:49;16.40;99.90
8910;DHT22;4490;49.072;8.804;2023-06-10T04:23:14;16.50;99.90
8910;DHT22;4490;49.072;8.804;2023-06-10T04:25:40;16.50;99.90
8910;DHT22;4490;49.072;8.804;2023-06-10T04:28:06;16.50;99.90
8910;DHT22;4490;49.072;8.804;2023-06-10T04:30:31;16.50;99.90
8910;DHT22;4490;49.072;8.804;2023-06-10T04:32:57;16.50;99.90
8910;DHT22;4490;49.072;8.804;2023-06-10T04:35:23;16.60;99.90
8910;DHT22;4490;49.072;8.804;2023-06-10T04:37:48;16.60;99.90
8910;DHT22;4490;49.072;8.804;2023-06-10T04:40:14;16.60;99.90
8910;DHT22;4490;49.072;8.804;2023-06-10T04:42:41;16.60;99.90
8910;DHT22;4490;49.072;8.804;2023-06-10T04:45:07;16.60;99.90
8910;DHT22;4490;49.072;8.804;2023-06-10T04:47:33;16.60;99.90
8910;DHT22;4490;49.072;8.804;2023-06-10T04:50:00;16.60;99.90
8910;DHT22;4490;49.072;8.804;2023-06-10T04:52:26;16.60;99.90
8910;DHT22;4490;49.072;8.804;2023-06-10T04:54:52;16.60;99.90
8910;DHT22;4490;49.072;8.804;2023-06-10T04:57:19;16.60;99.90
8910;DHT22;4490;49.072;8.804;2023-06-10T04:59:45;16.70;99.90
8910;DHT22;4490;49.072;8.804;2023-06-10T05:02:11;16.70;99.90
8910;DHT22;4490;49.072;8.804;2023-06-10T05:04:37;16.70;99.90
8910;DHT22;4490;49.072;8.804;2023-06-10T05:07:02;16.70;99.90
8910;DHT22;4490;49.072;8.804;2023-06-10T05:09:29;16.70;99.90
8910;DHT22;4490;49.072;8.804;2023-06-10T05:11:55;16.70;99.90
8910;DHT22;4490;49.072;8.804;2023-06-10T05:14:21;16.70;99.90
8910;DHT22;4490;49.072;8.804;2023-06-10T05:16:47;16.80;99.90
8910;DHT22;4490;49.072;8.804;2023-06-10T05:19:13;16.80;99.90
8910;DHT22;4490;49.072;8.804;2023-06-10T05:21:39;16.90;99.90
8910;DHT22;4490;49.072;8.804;2023-06-10T05:24:04;16.90;99.90
8910;DHT22;4490;49.072;8.804;2023-06-10T05:26:30;17.00;99.90
8910;DHT22;4490;49.072;8.804;2023-06-10T05:28:58;17.10;99.90
8910;DHT22;4490;49.072;8.804;2023-06-10T05:31:24;17.20;99.90
8910;DHT22;4490;49.072;8.804;2023-06-10T05:33:50;17.30;99.90
8910;DHT22;4490;49.072;8.804;2023-06-10T05:36:15;17.40;99.90
8910;DHT22;4490;49.072;8.804;2023-06-10T05:38:41;17.60;99.90
8910;DHT22;4490;49.072;8.804;2023-06-10T05:41:06;17.70;99.90
8910;DHT22;4490;49.072;8.804;2023-06-10T05:43:32;17.80;99.90
8910;DHT22;4490;49.072;8.804;2023-06-10T05:45:58;17.90;99.90
8910;DHT22;4490;49.072;8.804;2023-06-10T05:48:23;18.00;99.90
8910;DHT22;4490;49.072;8.804;2023-06-10T05:50:49;18.10;99.90
8910;DHT22;4490;49.072;8.804;2023-06-10T05:53:15;18.30;99.90
8910;DHT22;4490;49.072;8.804;2023-06-10T05:55:45;18.50;99.90
8910;DHT22;4490;49.072;8.804;2023-06-10T05:58:11;18.80;99.20
8910;DHT22;4490;49.072;8.804;2023-06-10T06:00:38;19.00;98.60
8910;DHT22;4490;49.072;8.804;2023-06-10T06:03:08;19.30;96.90
8910;DHT22;4490;49.072;8.804;2023-06-10T06:05:34;19.50;96.40
8910;DHT22;4490;49.072;8.804;2023-06-10T06:08:01;19.70;95.20
8910;DHT22;4490;49.072;8.804;2023-06-10T06:10:27;19.80;93.80
8910;DHT22;4490;49.072;8.804;2023-06-10T06:12:53;20.10;93.10
8910;DHT22;4490;49.072;8.804;2023-06-10T06:15:18;20.20;92.80
8910;DHT22;4490;49.072;8.804;2023-06-10T06:17:44;20.40;92.10
8910;DHT22;4490;49.072;8.804;2023-06-10T06:20:10;20.50;91.70
8910;DHT22;4490;49.072;8.804;2023-06-10T06:22:35;20.60;91.10
8910;DHT22;4490;49.072;8.804;2023-06-10T06:25:01;20.70;90.80
8910;DHT22;4490;49.072;8.804;2023-06-10T06:27:27;20.80;91.00
8910;DHT22;4490;49.072;8.804;2023-06-10T06:29:53;20.90;90.80
8910;DHT22;4490;49.072;8.804;2023-06-10T06:32:18;21.00;90.60
8910;DHT22;4490;49.072;8.804;2023-06-10T06:34:44;21.10;90.50
8910;DHT22;4490;49.072;8.804;2023-06-10T06:37:10;21.10;90.70
8910;DHT22;4490;49.072;8.804;2023-06-10T06:39:35;21.20;90.90
8910;DHT22;4490;49.072;8.804;2023-06-10T06:42:01;21.30;91.00
8910;DHT22;4490;49.072;8.804;2023-06-10T06:44:27;21.40;91.00
8910;DHT22;4490;49.072;8.804;2023-06-10T06:46:52;21.50;90.40
8910;DHT22;4490;49.072;8.804;2023-06-10T06:49:18;21.60;90.30
8910;DHT22;4490;49.072;8.804;2023-06-10T06:51:43;21.70;90.20
8910;DHT22;4490;49.072;8.804;2023-06-10T06:54:09;21.80;90.10
8910;DHT22;4490;49.072;8.804;2023-06-10T06:56:34;21.90;90.00
8910;DHT22;4490;49.072;8.804;2023-06-10T06:59:00;22.10;89.80
8910;DHT22;4490;49.072;8.804;2023-06-10T07:01:26;22.20;88.40
8910;DHT22;4490;49.072;8.804;2023-06-10T07:03:51;22.40;87.40
8910;DHT22;4490;49.072;8.804;2023-06-10T07:06:17;22.50;86.10
8910;DHT22;4490;49.072;8.804;2023-06-10T07:08:42;22.60;86.20
8910;DHT22;4490;49.072;8.804;2023-06-10T07:11:08;22.70;85.70
8910;DHT22;4490;49.072;8.804;2023-06-10T07:13:33;22.80;85.50
8910;DHT22;4490;49.072;8.804;2023-06-10T07:15:59;22.90;85.00
8910;DHT22;4490;49.072;8.804;2023-06-10T07:18:25;23.00;84.80
8910;DHT22;4490;49.072;8.804;2023-06-10T07:20:50;23.10;83.60
8910;DHT22;4490;49.072;8.804;2023-06-10T07:23:16;23.20;83.50
8910;DHT22;4490;49.072;8.804;2023-06-10T07:25:42;23.30;83.10
8910;DHT22;4490;49.072;8.804;2023-06-10T07:28:07;23.40;82.90
8910;DHT22;4490;49.072;8.804;2023-06-10T07:30:33;23.50;82.80
8910;DHT22;4490;49.072;8.804;2023-06-10T07:32:58;23.60;82.90
8910;DHT22;4490;49.072;8.804;2023-06-10T07:35:24;23.80;82.20
8910;DHT22;4490;49.072;8.804;2023-06-10T07:37:50;23.90;81.10
8910;DHT22;4490;49.072;8.804;2023-06-10T07:40:15;24.00;80.90
8910;DHT22;4490;49.072;8.804;2023-06-10T07:42:41;24.20;79.70
8910;DHT22;4490;49.072;8.804;2023-06-10T07:45:07;24.20;79.20
8910;DHT22;4490;49.072;8.804;2023-06-10T07:47:33;24.30;79.00
8910;DHT22;4490;49.072;8.804;2023-06-10T07:49:59;24.40;78.30
8910;DHT22;4490;49.072;8.804;2023-06-10T07:52:25;24.50;77.70
8910;DHT22;4490;49.072;8.804;2023-06-10T07:54:51;24.60;77.30
8910;DHT22;4490;49.072;8.804;2023-06-10T07:57:17;24.60;77.10
8910;DHT22;4490;49.072;8.804;2023-06-10T07:59:43;24.80;76.50
8910;DHT22;4490;49.072;8.804;2023-06-10T08:02:09;24.90;76.60
8910;DHT22;4490;49.072;8.804;2023-06-10T08:04:35;24.90;76.00
8910;DHT22;4490;49.072;8.804;2023-06-10T08:07:01;25.00;76.10
8910;DHT22;4490;49.072;8.804;2023-06-10T08:09:27;25.10;75.80
8910;DHT22;4490;49.072;8.804;2023-06-10T08:11:53;25.20;75.50
8910;DHT22;4490;49.072;8.804;2023-06-10T08:14:19;25.40;75.70
8910;DHT22;4490;49.072;8.804;2023-06-10T08:16:44;25.50;75.60
8910;DHT22;4490;49.072;8.804;2023-06-10T08:19:11;25.60;74.60
8910;DHT22;4490;49.072;8.804;2023-06-10T08:21:36;25.70;74.70
8910;DHT22;4490;49.072;8.804;2023-06-10T08:24:03;25.70;74.40
8910;DHT22;4490;49.072;8.804;2023-06-10T08:26:29;25.90;74.60
8910;DHT22;4490;49.072;8.804;2023-06-10T08:28:54;25.90;74.00
8910;DHT22;4490;49.072;8.804;2023-06-10T08:31:21;26.10;73.70
8910;DHT22;4490;49.072;8.804;2023-06-10T08:33:46;26.20;73.60
8910;DHT22;4490;49.072;8.804;2023-06-10T08:36:12;26.20;72.50
8910;DHT22;4490;49.072;8.804;2023-06-10T08:38:38;26.40;72.20
8910;DHT22;4490;49.072;8.804;2023-06-10T08:41:05;26.50;71.80
8910;DHT22;4490;49.072;8.804;2023-06-10T08:43:39;26.60;70.60
8910;DHT22;4490;49.072;8.804;2023-06-10T08:46:08;26.70;70.30
8910;DHT22;4490;49.072;8.804;2023-06-10T08:48:35;26.80;70.50
8910;DHT22;4490;49.072;8.804;2023-06-10T08:51:03;26.90;70.70
8910;DHT22;4490;49.072;8.804;2023-06-10T08:53:30;27.00;70.10
8910;DHT22;4490;49.072;8.804;2023-06-10T08:55:58;27.10;70.20
8910;DHT22;4490;49.072;8.804;2023-06-10T08:58:27;27.30;70.30
8910;DHT22;4490;49.072;8.804;2023-06-10T09:00:53;27.50;69.30
8910;DHT22;4490;49.072;8.804;2023-06-10T09:03:19;27.60;68.30
8910;DHT22;4490;49.072;8.804;2023-06-10T09:05:45;27.60;67.50
8910;DHT22;4490;49.072;8.804;2023-06-10T09:08:11;27.70;68.20
8910;DHT22;4490;49.072;8.804;2023-06-10T09:10:37;27.80;68.90
8910;DHT22;4490;49.072;8.804;2023-06-10T09:13:03;27.90;68.60
8910;DHT22;4490;49.072;8.804;2023-06-10T09:15:28;28.00;67.80
8910;DHT22;4490;49.072;8.804;2023-06-10T09:17:54;28.20;66.40
8910;DHT22;4490;49.072;8.804;2023-06-10T09:20:20;28.30;66.40
8910;DHT22;4490;49.072;8.804;2023-06-10T09:22:46;28.40;65.80
8910;DHT22;4490;49.072;8.804;2023-06-10T09:25:12;28.40;65.50
8910;DHT22;4490;49.072;8.804;2023-06-10T09:27:50;28.50;65.80
8910;DHT22;4490;49.072;8.804;2023-06-10T09:30:27;28.50;65.70
8910;DHT22;4490;49.072;8.804;2023-06-10T09:32:56;28.60;64.10
8910;DHT22;4490;49.072;8.804;2023-06-10T09:35:26;28.60;64.70
8910;DHT22;4490;49.072;8.804;2023-06-10T09:37:56;28.70;65.60
8910;DHT22;4490;49.072;8.804;2023-06-10T09:40:22;28.80;66.50
8910;DHT22;4490;49.072;8.804;2023-06-10T09:42:57;28.90;65.40
8910;DHT22;4490;49.072;8.804;2023-06-10T09:45:23;29.00;64.80
8910;DHT22;4490;49.072;8.804;2023-06-10T09:47:55;29.20;64.60
8910;DHT22;4490;49.072;8.804;2023-06-10T09:50:21;29.30;64.20
8910;DHT22;4490;49.072;8.804;2023-06-10T09:52:47;29.40;64.50
8910;DHT22;4490;49.072;8.804;2023-06-10T09:55:16;29.50;64.30
8910;DHT22;4490;49.072;8.804;2023-06-10T09:57:42;29.60;63.40
8910;DHT22;4490;49.072;8.804;2023-06-10T10:00:12;29.70;63.10
8910;DHT22;4490;49.072;8.804;2023-06-10T10:02:49;29.80;63.60
8910;DHT22;4490;49.072;8.804;2023-06-10T10:05:16;29.90;61.10
8910;DHT22;4490;49.072;8.804;2023-06-10T10:07:43;30.00;61.60
8910;DHT22;4490;49.072;8.804;2023-06-10T10:10:09;30.00;61.50
8910;DHT22;4490;49.072;8.804;2023-06-10T10:12:37;30.10;62.30
8910;DHT22;4490;49.072;8.804;2023-06-10T10:15:04;30.30;62.00
8910;DHT22;4490;49.072;8.804;2023-06-10T10:17:34;30.40;61.20
8910;DHT22;4490;49.072;8.804;2023-06-10T10:20:03;30.50;60.80
8910;DHT22;4490;49.072;8.804;2023-06-10T10:22:39;30.60;60.80
8910;DHT22;4490;49.072;8.804;2023-06-10T10:25:11;30.70;60.60
8910;DHT22;4490;49.072;8.804;2023-06-10T10:27:57;30.80;60.00
8910;DHT22;4490;49.072;8.804;2023-06-10T10:30:24;30.90;58.80
8910;DHT22;4490;49.072;8.804;2023-06-10T10:33:04;30.90;59.40
8910;DHT22;4490;49.072;8.804;2023-06-10T10:35:32;31.00;59.50
8910;DHT22;4490;49.072;8.804;2023-06-10T10:37:58;31.10;59.10
8910;DHT22;4490;49.072;8.804;2023-06-10T10:40:25;31.10;58.50
8910;DHT22;4490;49.072;8.804;2023-06-10T10:42:52;31.20;58.40
8910;DHT22;4490;49.072;8.804;2023-06-10T10:45:18;31.20;58.70
8910;DHT22;4490;49.072;8.804;2023-06-10T10:47:45;31.20;58.10
8910;DHT22;4490;49.072;8.804;2023-06-10T10:50:18;31.20;57.50
8910;DHT22;4490;49.072;8.804;2023-06-10T10:52:58;31.20;58.20
8910;DHT22;4490;49.072;8.804;2023-06-10T10:55:26;31.30;58.30
8910;DHT22;4490;49.072;8.804;2023-06-10T10:57:59;31.40;57.80
8910;DHT22;4490;49.072;8.804;2023-06-10T11:00:30;31.50;56.90
8910;DHT22;4490;49.072;8.804;2023-06-10T11:03:16;31.60;56.90
8910;DHT22;4490;49.072;8.804;2023-06-10T11:05:46;31.80;57.30
8910;DHT22;4490;49.072;8.804;2023-06-10T11:11:25;31.90;55.30
8910;DHT22;4490;49.072;8.804;2023-06-10T11:16:29;31.80;56.10
8910;DHT22;4490;49.072;8.804;2023-06-10T11:18:56;31.90;55.60
8910;DHT22;4490;49.072;8.804;2023-06-10T11:21:24;32.00;55.50
8910;DHT22;4490;49.072;8.804;2023-06-10T11:23:50;32.10;54.70
8910;DHT22;4490;49.072;8.804;2023-06-10T11:29:06;32.30;54.60
8910;DHT22;4490;49.072;8.804;2023-06-10T11:31:38;32.50;54.70
8910;DHT22;4490;49.072;8.804;2023-06-10T11:34:06;32.60;54.00
8910;DHT22;4490;49.072;8.804;2023-06-10T11:36:37;32.70;54.30
8910;DHT22;4490;49.072;8.804;2023-06-10T11:39:06;32.70;53.10
8910;DHT22;4490;49.072;8.804;2023-06-10T11:41:32;32.70;52.80
8910;DHT22;4490;49.072;8.804;2023-06-10T11:44:12;32.60;52.90
8910;DHT22;4490;49.072;8.804;2023-06-10T11:46:38;32.60;53.10
8910;DHT22;4490;49.072;8.804;2023-06-10T11:49:06;32.50;53.00
8910;DHT22;4490;49.072;8.804;2023-06-10T11:51:36;32.50;53.30
8910;DHT22;4490;49.072;8.804;2023-06-10T11:54:02;32.50;54.10
8910;DHT22;4490;49.072;8.804;2023-06-10T11:56:30;32.60;53.00
8910;DHT22;4490;49.072;8.804;2023-06-10T12:01:24;32.70;52.50
8910;DHT22;4490;49.072;8.804;2023-06-10T12:06:25;32.70;51.20
8910;DHT22;4490;49.072;8.804;2023-06-10T12:08:51;32.60;51.00
8910;DHT22;4490;49.072;8.804;2023-06-10T12:11:16;32.60;51.20
8910;DHT22;4490;49.072;8.804;2023-06-10T12:13:49;32.50;51.20
8910;DHT22;4490;49.072;8.804;2023-06-10T12:16:16;32.50;51.20
8910;DHT22;4490;49.072;8.804;2023-06-10T12:18:44;32.30;51.40
8910;DHT22;4490;49.072;8.804;2023-06-10T12:21:18;32.30;52.20
8910;DHT22;4490;49.072;8.804;2023-06-10T12:26:37;32.50;51.20
8910;DHT22;4490;49.072;8.804;2023-06-10T12:29:24;32.40;51.60
8910;DHT22;4490;49.072;8.804;2023-06-10T12:34:32;32.50;51.60
8910;DHT22;4490;49.072;8.804;2023-06-10T12:36:59;32.60;51.20
8910;DHT22;4490;49.072;8.804;2023-06-10T12:39:24;32.70;51.10
8910;DHT22;4490;49.072;8.804;2023-06-10T12:41:51;32.80;50.50
8910;DHT22;4490;49.072;8.804;2023-06-10T12:44:17;32.90;50.40
8910;DHT22;4490;49.072;8.804;2023-06-10T12:46:43;32.90;50.50
8910;DHT22;4490;49.072;8.804;2023-06-10T12:49:18;32.70;50.90
8910;DHT22;4490;49.072;8.804;2023-06-10T12:51:44;32.70;51.10
8910;DHT22;4490;49.072;8.804;2023-06-10T12:54:09;32.80;51.20
8910;DHT22;4490;49.072;8.804;2023-06-10T12:56:35;32.90;51.20
8910;DHT22;4490;49.072;8.804;2023-06-10T12:59:01;32.90;51.30
8910;DHT22;4490;49.072;8.804;2023-06-10T13:01:28;32.90;50.90
8910;DHT22;4490;49.072;8.804;2023-06-10T13:03:53;32.90;50.70
8910;DHT22;4490;49.072;8.804;2023-06-10T13:06:19;32.80;50.30
8910;DHT22;4490;49.072;8.804;2023-06-10T13:08:45;32.80;50.40
8910;DHT22;4490;49.072;8.804;2023-06-10T13:11:12;32.80;50.70
8910;DHT22;4490;49.072;8.804;2023-06-10T13:13:38;33.00;50.60
8910;DHT22;4490;49.072;8.804;2023-06-10T13:16:03;33.00;50.40
8910;DHT22;4490;49.072;8.804;2023-06-10T13:18:29;33.00;49.60
8910;DHT22;4490;49.072;8.804;2023-06-10T13:20:55;32.90;50.00
8910;DHT22;4490;49.072;8.804;2023-06-10T13:23:21;32.90;50.40
8910;DHT22;4490;49.072;8.804;2023-06-10T13:25:47;32.80;50.50
8910;DHT22;4490;49.072;8.804;2023-06-10T13:28:12;32.70;50.70
8910;DHT22;4490;49.072;8.804;2023-06-10T13:30:38;32.70;50.50
8910;DHT22;4490;49.072;8.804;2023-06-10T13:33:04;32.80;50.50
8910;DHT22;4490;49.072;8.804;2023-06-10T13:35:29;32.90;50.70
8910;DHT22;4490;49.072;8.804;2023-06-10T13:37:55;33.00;50.40
8910;DHT22;4490;49.072;8.804;2023-06-10T13:40:21;33.00;50.40
8910;DHT22;4490;49.072;8.804;2023-06-10T13:42:47;33.00;50.60
8910;DHT22;4490;49.072;8.804;2023-06-10T13:45:16;33.10;50.10
8910;DHT22;4490;49.072;8.804;2023-06-10T13:47:42;33.10;49.40
8910;DHT22;4490;49.072;8.804;2023-06-10T13:50:08;33.10;49.40
8910;DHT22;4490;49.072;8.804;2023-06-10T13:52:34;33.10;49.10
8910;DHT22;4490;49.072;8.804;2023-06-10T13:54:59;33.00;48.80
8910;DHT22;4490;49.072;8.804;2023-06-10T13:57:25;33.00;49.20
8910;DHT22;4490;49.072;8.804;2023-06-10T13:59:50;33.00;49.40
8910;DHT22;4490;49.072;8.804;2023-06-10T14:02:16;33.00;49.90
8910;DHT22;4490;49.072;8.804;2023-06-10T14:04:42;33.00;49.90
8910;DHT22;4490;49.072;8.804;2023-06-10T14:07:07;33.00;49.60
8910;DHT22;4490;49.072;8.804;2023-06-10T14:09:33;32.90;49.70
8910;DHT22;4490;49.072;8.804;2023-06-10T14:11:58;32.80;49.70
8910;DHT22;4490;49.072;8.804;2023-06-10T14:14:24;32.70;50.20
8910;DHT22;4490;49.072;8.804;2023-06-10T14:16:50;32.70;50.20
8910;DHT22;4490;49.072;8.804;2023-06-10T14:19:15;32.60;50.20
8910;DHT22;4490;49.072;8.804;2023-06-10T14:21:41;32.50;50.20
8910;DHT22;4490;49.072;8.804;2023-06-10T14:24:07;32.50;49.90
8910;DHT22;4490;49.072;8.804;2023-06-10T14:26:32;32.40;50.30
8910;DHT22;4490;49.072;8.804;2023-06-10T14:28:58;32.30;50.10
8910;DHT22;4490;49.072;8.804;2023-06-10T14:31:23;32.30;50.00
8910;DHT22;4490;49.072;8.804;2023-06-10T14:33:49;32.20;50.10
8910;DHT22;4490;49.072;8.804;2023-06-10T14:36:15;32.10;50.20
8910;DHT22;4490;49.072;8.804;2023-06-10T14:38:40;32.10;50.40
8910;DHT22;4490;49.072;8.804;2023-06-10T14:41:06;32.10;50.10
8910;DHT22;4490;49.072;8.804;2023-06-10T14:43:31;32.10;50.30
8910;DHT22;4490;49.072;8.804;2023-06-10T14:45:57;32.00;50.20
8910;DHT22;4490;49.072;8.804;2023-06-10T14:48:22;31.80;50.50
8910;DHT22;4490;49.072;8.804;2023-06-10T14:50:48;31.70;50.60
8910;DHT22;4490;49.072;8.804;2023-06-10T14:53:19;31.60;51.00
8910;DHT22;4490;49.072;8.804;2023-06-10T14:55:44;31.60;50.80
8910;DHT22;4490;49.072;8.804;2023-06-10T14:58:10;31.70;51.20
8910;DHT22;4490;49.072;8.804;2023-06-10T15:00:36;31.70;50.70
8910;DHT22;4490;49.072;8.804;2023-06-10T15:03:01;31.70;50.70
8910;DHT22;4490;49.072;8.804;2023-06-10T15:05:28;31.70;50.60
8910;DHT22;4490;49.072;8.804;2023-06-10T15:07:53;31.70;50.40
8910;DHT22;4490;49.072;8.804;2023-06-10T15:10:19;31.60;50.00
8910;DHT22;4490;49.072;8.804;2023-06-10T15:12:47;31.60;49.90
8910;DHT22;4490;49.072;8.804;2023-06-10T15:15:12;31.50;49.90
8910;DHT22;4490;49.072;8.804;2023-06-10T15:17:38;31.40;50.00
8910;DHT22;4490;49.072;8.804;2023-06-10T15:20:04;31.30;50.20
8910;DHT22;4490;49.072;8.804;2023-06-10T15:22:30;31.30;50.20
8910;DHT22;4490;49.072;8.804;2023-06-10T15:24:56;31.20;50.00
8910;DHT22;4490;49.072;8.804;2023-06-10T15:27:23;31.20;50.30
8910;DHT22;4490;49.072;8.804;2023-06-10T15:29:48;31.20;50.70
8910;DHT22;4490;49.072;8.804;2023-06-10T15:32:14;31.10;50.70
8910;DHT22;4490;49.072;8.804;2023-06-10T15:34:39;31.10;50.60
8910;DHT22;4490;49.072;8.804;2023-06-10T15:37:05;31.10;50.70
8910;DHT22;4490;49.072;8.804;2023-06-10T15:39:31;31.00;51.00
8910;DHT22;4490;49.072;8.804;2023-06-10T15:41:56;30.90;50.70
8910;DHT22;4490;49.072;8.804;2023-06-10T15:44:22;30.90;50.70
8910;DHT22;4490;49.072;8.804;2023-06-10T15:46:48;30.80;50.40
8910;DHT22;4490;49.072;8.804;2023-06-10T15:49:15;30.80;50.20
8910;DHT22;4490;49.072;8.804;2023-06-10T15:51:41;30.80;50.40
8910;DHT22;4490;49.072;8.804;2023-06-10T15:54:06;30.70;50.60
8910;DHT22;4490;49.072;8.804;2023-06-10T15:56:32;30.70;50.60
8910;DHT22;4490;49.072;8.804;2023-06-10T15:58:58;30.60;50.90
8910;DHT22;4490;49.072;8.804;2023-06-10T16:01:23;30.60;51.10
8910;DHT22;4490;49.072;8.804;2023-06-10T16:03:49;30.60;51.40
8910;DHT22;4490;49.072;8.804;2023-06-10T16:06:14;30.60;51.80
8910;DHT22;4490;49.072;8.804;2023-06-10T16:08:41;30.60;52.00
8910;DHT22;4490;49.072;8.804;2023-06-10T16:11:07;30.60;52.00
8910;DHT22;4490;49.072;8.804;2023-06-10T16:13:35;30.60;51.90
8910;DHT22;4490;49.072;8.804;2023-06-10T16:16:00;30.50;51.60
8910;DHT22;4490;49.072;8.804;2023-06-10T16:18:26;30.50;51.90
8910;DHT22;4490;49.072;8.804;2023-06-10T16:20:52;30.50;52.40